Palmersprings, Virginia
Current Conditions -  °F | °C
As of 5:15 PM on Monday 20 Oct 2014 (Local Time) from KW63 Reporting Station
Clear Clear  
Wind Chill: 64°   Ceiling: Unl
Heat Index: 64°   Visibility: 10mi
Dew Point: 46°   Wind: 6mph
Humidity: 52%   Direction: 190°S
Pressure: 29.98"   Gusts: NA
Location:  36.658°N, 78.3793°W
Report Text: KW63 202115Z AUTO 19005KT 10SM CLR 18/08 A2998 RMK AO1
Loading
Personal Weather Stations






























Interactive Weather Map
Tropical Storm Tracking
New forecast layout! Learn more

10-Day Weather Forecast

Advertisements
Track Severe Weather on mobile